Time;durP1;ratioP1;P1;durP2;ratioP2;P2;SDS_P1;SDS_P2;PMS_P1;PMS_P2;Temp;Humidity;BMP_temperature;BMP_pressure;BME280_temperature;BME280_humidity;BME280_pressure;Samples;Min_cycle;Max_cycle;Signal;HPM_P1;HPM_P2
2022/11/28 00:01:34;;;;;;;20.27;10.68;;;19.10;78.70;;;19.57;43.74;99512.59;5000325;28;20041;-75
2022/11/28 00:04:00;;;;;;;24.17;10.73;;;19.10;78.50;;;19.51;43.89;99511.91;4999852;28;20130;-76
2022/11/28 00:06:26;;;;;;;19.67;10.63;;;19.00;78.40;;;19.54;43.81;99515.97;5009396;28;20045;-76
2022/11/28 00:08:53;;;;;;;19.48;10.68;;;19.00;78.80;;;19.53;44.21;99525.34;5013958;28;20053;-75
2022/11/28 00:11:20;;;;;;;19.25;10.63;;;19.00;79.10;;;19.53;44.08;99525.34;5031691;28;20047;-75
2022/11/28 00:13:46;;;;;;;21.65;11.00;;;19.00;78.80;;;19.51;43.82;99533.09;5011837;28;20041;-75
2022/11/28 00:16:20;;;;;;;23.20;10.75;;;19.00;78.70;;;19.52;43.73;99543.00;5029889;28;20345;-75
2022/11/28 00:18:47;;;;;;;16.90;9.35;;;19.00;78.50;;;19.53;43.65;99544.59;5028560;28;20069;-75
2022/11/28 00:21:14;;;;;;;17.83;10.73;;;19.10;78.40;;;19.51;43.62;99555.94;5029643;28;20048;-75
2022/11/28 00:23:41;;;;;;;19.27;10.85;;;19.10;78.40;;;19.53;43.89;99547.34;5013520;28;20404;-75
2022/11/28 00:26:35;;;;;;;17.65;10.60;;;19.00;78.60;;;19.48;43.93;99545.53;5011983;28;20100;-75
2022/11/28 00:29:01;;;;;;;17.08;9.05;;;19.00;78.70;;;19.48;43.83;99545.53;5027542;28;20183;-75
2022/11/28 00:31:31;;;;;;;22.13;11.25;;;19.00;78.70;;;19.48;43.65;99539.22;5030453;28;20040;-76
2022/11/28 00:33:58;;;;;;;16.13;9.90;;;19.10;78.40;;;19.45;43.76;99548.13;5030091;28;20099;-75
2022/11/28 00:36:24;;;;;;;16.73;9.80;;;19.00;78.30;;;19.43;43.87;99542.91;5030384;28;20132;-75
2022/11/28 00:38:50;;;;;;;15.75;9.52;;;19.10;78.40;;;19.46;43.89;99547.81;5027890;28;20598;-75
2022/11/28 00:41:22;;;;;;;16.92;9.75;;;19.00;78.70;;;19.45;43.80;99545.38;5029136;28;20079;-75
2022/11/28 00:43:48;;;;;;;22.25;10.38;;;19.00;78.80;;;19.44;44.07;99538.25;5030192;28;20124;-75
2022/11/28 00:46:15;;;;;;;15.60;10.10;;;19.00;78.80;;;19.41;44.17;99541.59;5012525;28;20481;-75
2022/11/28 00:48:41;;;;;;;18.48;10.48;;;19.00;78.40;;;19.46;43.46;99538.72;5012259;28;20593;-75
2022/11/28 00:51:28;;;;;;;18.52;10.60;;;19.10;78.20;;;19.41;44.02;99538.84;5031100;28;20044;-75
2022/11/28 00:53:58;;;;;;;15.90;10.13;;;19.00;78.30;;;19.40;43.83;99531.75;5031884;28;20057;-75
2022/11/28 00:56:32;;;;;;;18.35;10.45;;;19.00;78.40;;;19.44;43.92;99522.56;5011751;28;20045;-75
2022/11/28 00:58:58;;;;;;;18.00;9.68;;;19.00;78.60;;;19.37;43.93;99524.13;4996619;28;20128;-75
2022/11/28 01:01:35;;;;;;;17.25;9.45;;;19.00;78.70;;;19.34;44.29;99511.00;5029692;28;20108;-75
2022/11/28 01:04:03;;;;;;;16.58;10.38;;;19.00;78.60;;;19.39;43.89;99513.63;5000679;28;20091;-75
2022/11/28 01:06:54;;;;;;;19.30;10.55;;;19.00;78.30;;;19.42;43.76;99518.50;5032069;28;20417;-75
2022/11/28 01:09:22;;;;;;;17.40;10.88;;;19.00;78.30;;;19.38;43.98;99511.97;5014297;28;20049;-75
2022/11/28 01:11:51;;;;;;;22.55;10.02;;;19.00;78.40;;;19.43;44.03;99509.91;5023932;28;20468;-75
2022/11/28 01:14:22;;;;;;;16.33;9.35;;;19.00;78.50;;;19.38;43.92;99498.22;5026523;28;20109;-75
2022/11/28 01:16:48;;;;;;;17.77;11.02;;;18.90;78.60;;;19.36;43.85;99493.06;5012947;28;20037;-75
2022/11/28 01:19:14;;;;;;;18.10;9.80;;;18.90;78.30;;;19.36;43.74;99500.47;5028534;28;20520;-75
2022/11/28 01:21:40;;;;;;;17.25;9.93;;;19.00;78.30;;;19.36;43.86;99481.22;5012246;28;20056;-76
2022/11/28 01:24:06;;;;;;;12.13;8.55;;;19.00;78.10;;;19.37;43.65;99489.16;5022383;28;20049;-76
2022/11/28 01:26:33;;;;;;;17.38;9.93;;;19.00;78.80;;;19.38;44.01;99485.28;5029606;28;20044;-76
2022/11/28 01:28:59;;;;;;;13.82;8.63;;;19.00;78.50;;;19.42;43.91;99474.47;5028308;28;20486;-76
2022/11/28 01:31:27;;;;;;;17.15;9.63;;;18.90;78.60;;;19.33;44.20;99473.59;5028907;28;20042;-76
2022/11/28 01:33:53;;;;;;;14.82;9.30;;;18.90;78.60;;;19.29;43.98;99468.75;5027840;28;20069;-76
2022/11/28 01:36:20;;;;;;;17.58;10.13;;;18.90;78.40;;;19.32;43.69;99470.03;5026734;28;20076;-76
2022/11/28 01:38:46;;;;;;;16.17;9.55;;;18.90;78.20;;;19.36;43.73;99470.22;5028366;28;20495;-76
2022/11/28 01:41:14;;;;;;;15.77;9.15;;;18.90;77.90;;;19.33;43.99;99465.34;5012107;28;20037;-76
2022/11/28 01:44:06;;;;;;;17.38;9.68;;;18.90;78.30;;;19.32;43.95;99455.50;5011260;28;20080;-75
2022/11/28 01:46:34;;;;;;;21.77;9.73;;;19.00;78.50;;;19.32;43.98;99444.50;5027006;28;20041;-76
2022/11/28 01:49:28;;;;;;;14.82;9.38;;;19.00;78.60;;;19.30;44.12;99447.53;5025819;28;20350;-75
2022/11/28 01:52:03;;;;;;;19.30;9.95;;;18.90;78.20;;;19.34;43.81;99445.00;5012355;28;20045;-76
2022/11/28 01:54:30;;;;;;;16.73;9.95;;;18.90;78.10;;;19.27;43.83;99440.72;5008332;28;20052;-76
2022/11/28 01:57:05;;;;;;;13.57;8.50;;;18.90;78.10;;;19.32;43.75;99441.75;5028896;28;20045;-76
2022/11/28 01:59:35;;;;;;;13.32;8.27;;;18.90;78.00;;;19.28;44.26;99442.38;5012542;28;20350;-76
2022/11/28 02:02:04;;;;;;;14.38;8.93;;;18.90;78.60;;;19.25;44.26;99439.41;5007873;28;20499;-76
2022/11/28 02:04:29;;;;;;;13.73;8.85;;;18.90;78.60;;;19.28;43.70;99436.88;5025345;28;20444;-76
2022/11/28 02:06:56;;;;;;;19.23;10.02;;;18.90;78.20;;;19.28;43.80;99434.13;5028608;28;20049;-76
2022/11/28 02:09:22;;;;;;;17.08;10.52;;;18.90;78.20;;;19.29;43.75;99429.44;5009466;28;20438;-76
2022/11/28 02:12:10;;;;;;;17.90;7.93;;;18.90;78.20;;;19.27;43.70;99432.47;5014765;28;20059;-75
2022/11/28 02:15:01;;;;;;;14.60;8.50;;;18.90;78.10;;;19.23;44.18;99437.00;5030003;28;20068;-76
2022/11/28 02:17:55;;;;;;;16.38;9.65;;;18.90;78.60;;;19.19;44.11;99427.75;5012773;28;20041;-75
2022/11/28 02:20:42;;;;;;;13.07;9.02;;;18.90;78.60;;;19.22;44.04;99420.81;5027696;28;20099;-75
2022/11/28 02:23:12;;;;;;;14.63;8.40;;;18.90;78.50;;;19.25;43.93;99418.22;5028403;28;20535;-75
2022/11/28 02:26:15;;;;;;;17.33;8.60;;;18.90;78.20;;;19.21;43.84;99421.91;5025568;28;20041;-76
2022/11/28 02:29:18;;;;;;;12.95;8.27;;;18.80;78.30;;;19.26;43.73;99416.31;5027802;28;20033;-75
2022/11/28 02:32:21;;;;;;;16.30;9.68;;;18.80;78.10;;;19.18;44.27;99428.84;5029419;28;20041;-75
2022/11/28 02:35:11;;;;;;;16.08;8.43;;;18.80;79.60;;;19.18;44.37;99414.31;5028492;28;20045;-75
2022/11/28 02:38:13;;;;;;;17.33;9.23;;;18.80;78.70;;;19.22;43.94;99418.88;5026523;28;20037;-75
2022/11/28 02:41:06;;;;;;;19.75;10.57;;;18.80;78.30;;;19.22;43.39;99421.63;5028959;28;20033;-75
2022/11/28 02:43:43;;;;;;;16.88;9.80;;;18.80;78.30;;;19.22;43.60;99413.38;5012678;28;20037;-76
2022/11/28 02:46:13;;;;;;;15.00;8.77;;;18.80;78.10;;;19.17;44.00;99418.19;5011272;28;20506;-76
2022/11/28 02:49:18;;;;;;;12.63;8.27;;;18.80;78.40;;;19.17;44.23;99415.44;5027745;28;20041;-76
2022/11/28 02:51:52;;;;;;;13.70;7.45;;;18.80;79.40;;;19.13;44.33;99404.25;5030006;28;20033;-75
2022/11/28 02:54:18;;;;;;;15.80;9.10;;;18.80;78.70;;;19.17;43.91;99398.94;5009346;28;20040;-75
2022/11/28 02:56:52;;;;;;;11.07;8.60;;;18.80;78.20;;;19.18;43.79;99406.06;4993501;28;20417;-75
2022/11/28 02:59:36;;;;;;;18.13;8.70;;;18.80;78.10;;;19.16;43.80;99400.88;5028001;28;20041;-76
2022/11/28 03:02:17;;;;;;;15.82;9.27;;;18.70;78.10;;;19.19;44.10;99403.00;5022195;28;20038;-75
2022/11/28 03:05:24;;;;;;;12.18;8.05;;;18.80;78.40;;;19.17;44.21;99397.00;5043751;28;20103;-75
2022/11/28 03:08:42;;;;;;;12.52;8.05;;;18.80;78.60;;;19.14;44.00;99392.13;5017945;28;20104;-75
2022/11/28 03:11:32;;;;;;;16.83;9.05;;;18.80;78.70;;;19.17;43.96;99394.25;5036595;28;20049;-75
2022/11/28 03:14:22;;;;;;;14.70;7.88;;;18.80;79.30;;;19.16;43.76;99394.56;5035363;28;20038;-75
2022/11/28 03:17:13;;;;;;;17.50;8.55;;;18.70;78.10;;;19.15;43.80;99388.25;5031004;28;20053;-75
2022/11/28 03:19:42;;;;;;;13.80;9.60;;;18.70;78.10;;;19.13;44.18;99382.25;5044945;28;20034;-75
2022/11/28 03:22:17;;;;;;;17.67;9.05;;;18.70;78.70;;;19.15;44.17;99384.69;5030394;28;20341;-75
2022/11/28 03:25:10;;;;;;;14.18;8.30;;;18.70;78.70;;;19.16;44.20;99383.56;5019142;28;20732;-75
2022/11/28 03:27:46;;;;;;;10.93;8.20;;;18.70;78.50;;;19.12;44.00;99377.88;5029178;28;20056;-76
2022/11/28 03:30:51;;;;;;;16.02;9.45;;;18.70;78.00;;;19.14;43.70;99380.34;5015432;28;20040;-75
2022/11/28 03:33:17;;;;;;;12.68;8.13;;;18.80;78.10;;;19.13;43.59;99384.19;5020368;28;20064;-75
2022/11/28 03:35:50;;;;;;;13.02;8.77;;;18.70;77.90;;;19.08;44.27;99382.38;5022071;28;20464;-76
2022/11/28 03:38:27;;;;;;;13.68;8.98;;;18.70;78.70;;;19.09;44.29;99384.03;5012307;28;20111;-75
2022/11/28 03:40:55;;;;;;;13.20;8.55;;;18.70;78.60;;;19.11;44.12;99376.28;5012501;28;20056;-76
2022/11/28 03:43:28;;;;;;;14.45;8.35;;;18.70;78.40;;;19.11;44.06;99370.78;5030474;28;20037;-76
2022/11/28 03:45:57;;;;;;;13.10;7.85;;;18.70;78.40;;;19.12;43.72;99375.13;4999324;28;20046;-76
2022/11/28 03:48:35;;;;;;;12.57;7.82;;;18.70;78.20;;;19.11;43.66;99369.94;5031413;28;20045;-76
2022/11/28 03:51:15;;;;;;;12.57;7.70;;;18.70;78.20;;;19.08;43.91;99371.38;5017200;28;20044;-76
2022/11/28 03:54:07;;;;;;;13.88;7.95;;;18.60;78.50;;;19.08;43.75;99369.47;5013954;28;20033;-76
2022/11/28 03:57:06;;;;;;;12.10;8.43;;;18.60;77.90;;;19.05;43.48;99361.84;5027809;28;20042;-75
2022/11/28 03:59:50;;;;;;;14.77;8.45;;;18.50;77.50;;;19.07;43.07;99369.78;5012940;28;20113;-75
2022/11/28 04:02:42;;;;;;;14.85;8.32;;;18.50;77.40;;;19.06;43.52;99370.91;5021514;28;20089;-75
2022/11/28 04:05:49;;;;;;;14.10;8.05;;;18.50;78.10;;;19.04;43.64;99367.66;5031727;28;20045;-76
2022/11/28 04:08:18;;;;;;;13.02;8.82;;;18.60;78.20;;;19.01;43.66;99363.59;5029397;28;20100;-76
2022/11/28 04:10:56;;;;;;;13.60;8.10;;;18.70;78.00;;;19.05;43.25;99372.03;4995518;28;20100;-75
2022/11/28 04:13:59;;;;;;;16.23;8.30;;;18.60;77.10;;;19.06;43.03;99373.66;5016287;28;20042;-75
2022/11/28 04:16:47;;;;;;;10.13;8.23;;;18.50;77.00;;;19.05;43.02;99372.03;5034080;28;20061;-75
2022/11/28 04:19:29;;;;;;;11.55;8.05;;;18.40;76.90;;;18.99;43.54;99356.81;5029993;28;20048;-75
2022/11/28 04:22:14;;;;;;;13.13;7.88;;;18.50;77.90;;;18.94;43.77;99365.19;5036368;28;20120;-75
2022/11/28 04:24:48;;;;;;;11.32;8.02;;;18.60;77.80;;;18.96;43.54;99368.44;5012614;28;20139;-75
2022/11/28 04:27:22;;;;;;;13.95;8.75;;;18.60;77.50;;;19.00;43.10;99364.72;5025266;28;20046;-75
2022/11/28 04:29:54;;;;;;;12.88;8.93;;;18.50;77.00;;;18.98;42.98;99360.66;5013743;28;20062;-75
2022/11/28 04:32:20;;;;;;;11.07;8.10;;;18.40;76.90;;;18.98;43.01;99355.16;5014571;28;20421;-75
2022/11/28 04:34:52;;;;;;;14.25;9.05;;;18.40;76.90;;;18.96;43.23;99362.94;5013262;28;20040;-75
2022/11/28 04:37:18;;;;;;;17.25;9.70;;;18.40;77.40;;;18.97;43.43;99361.81;5011002;28;20042;-75
2022/11/28 04:39:46;;;;;;;13.65;8.13;;;18.40;77.60;;;18.98;43.54;99363.41;5031944;28;20486;-75
2022/11/28 04:42:17;;;;;;;12.27;7.38;;;18.50;77.30;;;18.96;42.97;99351.94;5031233;28;20436;-76
2022/11/28 04:44:50;;;;;;;13.55;8.15;;;18.50;77.00;;;18.96;42.88;99351.94;5029285;28;20038;-75
2022/11/28 04:47:16;;;;;;;14.10;7.32;;;18.50;77.00;;;18.96;42.73;99357.44;5013310;28;20064;-76
2022/11/28 04:49:43;;;;;;;13.75;8.35;;;18.40;76.90;;;18.92;42.61;99356.44;5030096;28;20037;-75
2022/11/28 04:52:34;;;;;;;15.88;8.70;;;18.40;76.90;;;18.91;43.28;99355.63;5030086;28;20132;-76
2022/11/28 04:55:17;;;;;;;11.80;7.88;;;18.40;77.40;;;18.90;43.19;99358.69;5025125;28;20053;-75
2022/11/28 04:57:45;;;;;;;15.55;8.88;;;18.40;77.20;;;18.94;42.80;99354.19;5029000;28;20437;-75
2022/11/28 05:00:17;;;;;;;12.98;7.78;;;18.50;77.00;;;18.96;42.75;99351.94;5029434;28;20077;-74
2022/11/28 05:02:44;;;;;;;12.30;7.40;;;18.40;76.90;;;18.87;42.69;99338.94;5030861;28;20045;-75
2022/11/28 05:05:19;;;;;;;12.45;8.30;;;18.40;76.80;;;18.86;42.72;99345.56;5028559;28;20037;-75
2022/11/28 05:07:46;;;;;;;12.77;8.10;;;18.30;76.80;;;18.89;42.99;99346.09;5009676;28;20038;-77
2022/11/28 05:10:13;;;;;;;11.98;8.35;;;18.30;76.90;;;18.87;43.23;99341.69;5025915;28;20045;-74
2022/11/28 05:12:39;;;;;;;11.25;8.13;;;18.40;76.90;;;18.85;43.26;99348.63;5027953;28;20037;-75
2022/11/28 05:15:06;;;;;;;9.52;7.55;;;18.40;76.90;;;18.85;42.81;99345.88;5030330;28;20378;-75
2022/11/28 05:17:32;;;;;;;14.88;8.57;;;18.40;76.70;;;18.87;42.64;99349.13;5028351;28;20091;-74
2022/11/28 05:19:58;;;;;;;11.60;8.23;;;18.40;76.70;;;18.87;42.64;99338.94;5031293;28;20091;-75
2022/11/28 05:22:24;;;;;;;12.77;8.05;;;18.30;76.60;;;18.89;42.60;99346.09;5031837;28;20041;-73
2022/11/28 05:24:50;;;;;;;11.32;7.78;;;18.20;76.60;;;18.87;42.96;99341.69;5031923;28;20423;-73
2022/11/28 05:27:17;;;;;;;14.38;8.88;;;18.30;76.80;;;18.87;42.91;99349.13;5027171;28;20045;-73
2022/11/28 05:29:45;;;;;;;11.95;7.80;;;18.30;76.80;;;18.86;42.95;99347.53;5029737;28;20037;-74
2022/11/28 05:32:14;;;;;;;12.07;8.65;;;18.40;76.90;;;18.86;42.58;99342.03;5030183;28;20059;-74
2022/11/28 05:34:40;;;;;;;13.80;8.43;;;18.30;76.70;;;18.83;42.58;99345.41;5011514;28;20065;-73
2022/11/28 05:37:06;;;;;;;16.33;9.15;;;18.20;76.70;;;18.84;42.35;99352.53;5035214;28;20099;-73
2022/11/28 05:39:32;;;;;;;14.95;8.10;;;18.20;76.70;;;18.82;42.69;99347.31;5028931;28;20041;-73
2022/11/28 05:41:58;;;;;;;12.00;7.97;;;18.20;76.70;;;18.81;42.94;99356.72;5045983;28;20123;-73
2022/11/28 05:44:24;;;;;;;12.32;7.93;;;18.20;76.70;;;18.80;43.15;99344.09;5013062;28;20045;-73
2022/11/28 05:46:50;;;;;;;12.50;7.53;;;18.30;76.80;;;18.81;42.60;99350.41;5011248;28;20810;-73
2022/11/28 05:49:17;;;;;;;11.57;7.80;;;18.30;76.60;;;18.82;42.42;99344.56;5027921;28;20037;-73
2022/11/28 05:51:43;;;;;;;12.27;8.18;;;18.20;76.30;;;18.76;42.56;99348.59;5026365;28;20431;-73
2022/11/28 05:54:10;;;;;;;12.68;8.73;;;18.20;76.50;;;18.78;42.51;99346.34;5026660;28;20041;-73
2022/11/28 05:56:37;;;;;;;12.43;7.53;;;18.20;76.60;;;18.75;42.66;99346.13;5028486;28;20049;-73
2022/11/28 05:59:02;;;;;;;14.07;7.78;;;18.20;76.70;;;18.77;42.51;99346.66;5027335;28;20041;-73
2022/11/28 06:01:29;;;;;;;10.80;7.93;;;18.20;76.70;;;18.75;42.72;99346.13;5026603;28;20560;-72
2022/11/28 06:03:59;;;;;;;13.90;8.18;;;18.20;76.70;;;18.78;42.98;99351.84;5028357;28;20048;-73
2022/11/28 06:06:28;;;;;;;10.70;7.80;;;18.20;76.70;;;18.75;42.77;99346.13;5028750;28;20557;-73
2022/11/28 06:08:53;;;;;;;12.77;8.23;;;18.20;76.70;;;18.75;43.17;99341.50;5028935;28;20280;-73
2022/11/28 06:11:21;;;;;;;12.32;8.27;;;18.30;76.80;;;18.73;42.92;99349.19;5026387;28;20048;-73
2022/11/28 06:13:47;;;;;;;11.55;7.32;;;18.20;76.70;;;18.71;43.03;99348.69;5028484;28;20520;-73
2022/11/28 06:16:16;;;;;;;13.80;8.05;;;18.20;76.70;;;18.72;42.79;99346.75;5029089;28;20521;-73
2022/11/28 06:18:42;;;;;;;11.05;7.85;;;18.10;76.60;;;18.72;43.00;99347.56;5027621;28;20042;-73
2022/11/28 06:21:13;;;;;;;10.85;7.78;;;18.10;77.20;;;18.77;43.33;99350.22;5026706;28;20037;-74
2022/11/28 06:23:39;;;;;;;12.38;8.10;;;18.10;77.40;;;18.72;43.55;99344.00;5028100;28;20400;-76
2022/11/28 06:26:11;;;;;;;13.27;8.48;;;18.20;77.70;;;18.70;43.16;99346.25;5028831;28;20052;-74
2022/11/28 06:28:37;;;;;;;;;;;18.20;77.10;;;18.71;43.27;99345.94;5015471;28;20068;-74
2022/11/28 06:31:03;;;;;;;8.60;6.63;;;18.10;77.20;;;18.68;43.13;99334.78;5028555;28;19921;-76
2022/11/28 06:33:30;;;;;;;12.63;8.45;;;18.10;77.20;;;18.65;43.29;99338.97;5022715;28;20045;-76
2022/11/28 06:36:03;;;;;;;11.68;7.20;;;18.10;77.30;;;18.67;43.40;99342.19;5023329;28;20049;-76
2022/11/28 06:38:29;;;;;;;8.68;7.32;;;18.10;77.70;;;18.70;43.72;99333.34;5007489;28;20033;-76
2022/11/28 06:41:02;;;;;;;13.25;8.32;;;18.10;78.00;;;18.69;43.30;99336.41;5024203;28;20046;-75
2022/11/28 06:43:28;;;;;;;10.55;7.43;;;18.10;77.80;;;18.63;43.48;99330.22;5005760;28;20141;-75
2022/11/28 06:45:55;;;;;;;10.65;7.88;;;18.10;77.70;;;18.65;43.63;99336.22;5023359;28;20049;-75
2022/11/28 06:48:21;;;;;;;15.10;9.27;;;18.10;77.60;;;18.66;43.94;99337.84;5024776;28;20048;-75
2022/11/28 06:50:47;;;;;;;10.18;7.47;;;18.20;78.10;;;18.67;43.79;99331.19;5027413;28;20094;-75
2022/11/28 06:53:13;;;;;;;13.02;7.95;;;18.10;78.20;;;18.69;44.05;99342.69;5008485;28;20060;-76
2022/11/28 06:55:40;;;;;;;12.43;7.45;;;18.10;78.40;;;18.69;43.97;99341.91;5022478;28;20048;-75
2022/11/28 06:58:05;;;;;;;14.45;7.85;;;18.20;78.60;;;18.59;44.10;99332.78;5007323;28;20099;-76
2022/11/28 07:00:32;;;;;;;9.20;6.72;;;18.10;78.30;;;18.62;44.02;99331.34;5022065;28;20049;-76
2022/11/28 07:02:58;;;;;;;10.30;7.22;;;18.10;79.20;;;18.64;43.85;99340.88;5022848;28;20041;-75
2022/11/28 07:05:26;;;;;;;10.60;7.57;;;18.10;78.20;;;18.65;43.84;99345.28;5006727;28;20053;-75
2022/11/28 07:07:59;;;;;;;10.73;7.45;;;18.10;78.20;;;18.65;44.08;99344.47;5022154;28;20060;-75
2022/11/28 07:10:26;;;;;;;15.27;7.20;;;18.10;78.40;;;18.67;44.05;99336.69;5012191;28;20045;-75
2022/11/28 07:12:59;;;;;;;8.35;6.18;;;18.00;79.10;;;18.65;43.99;99333.47;5005796;28;20095;-75
2022/11/28 07:15:27;;;;;;;12.95;7.95;;;18.10;78.70;;;18.62;43.82;99336.84;5008259;28;20507;-75
2022/11/28 07:17:53;;;;;;;11.02;7.65;;;18.00;78.30;;;18.63;43.99;99338.47;5027479;28;20045;-75
2022/11/28 07:20:19;;;;;;;10.95;7.03;;;18.00;78.30;;;18.58;43.82;99339.41;5010294;28;20041;-75
2022/11/28 07:22:47;;;;;;;10.48;7.30;;;18.00;78.20;;;18.62;44.03;99345.91;5028464;28;20504;-75
2022/11/28 07:25:13;;;;;;;11.38;7.47;;;18.00;78.30;;;18.65;44.02;99342.53;5018989;28;20080;-75
2022/11/28 07:27:41;;;;;;;11.32;8.25;;;18.10;78.70;;;18.65;44.23;99338.97;5020388;28;20069;-75
2022/11/28 07:30:08;;;;;;;12.50;7.93;;;18.10;78.70;;;18.62;44.28;99331.34;5024401;28;20041;-75
2022/11/28 07:32:34;;;;;;;10.23;7.80;;;18.10;78.30;;;18.60;43.82;99334.41;5022265;28;20628;-75
2022/11/28 07:35:00;;;;;;;9.93;7.10;;;18.10;79.20;;;18.63;43.85;99333.78;5007820;28;20050;-75
2022/11/28 07:37:26;;;;;;;12.07;8.45;;;18.10;78.20;;;18.63;43.69;99335.72;4994995;28;20050;-75
2022/11/28 07:39:52;;;;;;;9.75;6.53;;;18.00;78.10;;;18.64;44.03;99331.84;5021630;28;20037;-75
2022/11/28 07:42:18;;;;;;;9.63;6.78;;;18.00;78.60;;;18.68;44.10;99335.59;4991419;28;20045;-75
2022/11/28 07:44:45;;;;;;;13.48;7.68;;;18.10;78.60;;;18.63;44.08;99335.72;5021859;28;20038;-75
2022/11/28 07:47:11;;;;;;;11.48;7.97;;;18.10;79.00;;;18.59;44.07;99329.22;5023771;28;20466;-75
2022/11/28 07:49:37;;;;;;;14.18;8.05;;;18.00;78.60;;;18.63;44.23;99333.78;5024143;28;20048;-75
2022/11/28 07:52:03;;;;;;;10.38;6.53;;;18.00;78.40;;;18.60;43.48;99331.66;5010441;28;20037;-75
2022/11/28 07:54:29;;;;;;;11.50;7.10;;;18.00;78.40;;;18.62;43.85;99336.84;5026161;28;20045;-75
2022/11/28 07:56:55;;;;;;;11.05;7.53;;;18.00;78.30;;;18.62;43.80;99337.66;5024522;28;20565;-75
2022/11/28 07:59:22;;;;;;;11.02;7.32;;;18.00;78.70;;;18.64;44.12;99338.13;5026485;28;20034;-75
2022/11/28 08:01:48;;;;;;;11.77;7.22;;;18.00;78.80;;;18.62;44.09;99337.66;5023249;28;20277;-75
2022/11/28 08:04:14;;;;;;;9.27;7.18;;;18.10;78.80;;;18.59;44.37;99337.47;5023574;28;20041;-75
2022/11/28 08:06:40;;;;;;;15.02;6.90;;;18.10;78.60;;;18.58;44.08;99335.84;5027145;28;20111;-75
2022/11/28 08:09:07;;;;;;;10.93;7.03;;;18.10;78.40;;;18.60;43.80;99337.16;5024580;28;20594;-75
2022/11/28 08:11:33;;;;;;;12.48;7.68;;;18.00;78.30;;;18.61;44.06;99329.72;5024823;28;20424;-75
2022/11/28 08:14:00;;;;;;;12.15;7.45;;;18.00;78.40;;;18.60;43.98;99328.13;5009619;28;20057;-75
2022/11/28 08:16:27;;;;;;;9.07;6.13;;;18.10;78.60;;;18.64;43.98;99327.16;4992320;28;20096;-75
2022/11/28 08:18:54;;;;;;;11.20;7.10;;;18.10;78.70;;;18.63;44.16;99328.28;5026632;28;20091;-75
2022/11/28 08:21:23;;;;;;;9.77;6.80;;;18.10;78.60;;;18.61;43.85;99327.78;5025174;28;20038;-75
2022/11/28 08:23:52;;;;;;;10.82;7.25;;;18.00;78.40;;;18.55;43.93;99323.56;4994530;28;20133;-75
2022/11/28 08:26:21;;;;;;;12.48;7.10;;;18.00;78.30;;;18.62;43.96;99325.84;5025547;28;20072;-75
2022/11/28 08:28:49;;;;;;;8.93;6.38;;;18.00;78.30;;;18.57;44.03;99324.06;5026451;28;20041;-76
2022/11/28 08:31:23;;;;;;;11.68;6.82;;;18.00;78.50;;;18.62;44.00;99331.34;5010643;28;20046;-75
2022/11/28 08:33:51;;;;;;;9.45;6.63;;;18.10;78.50;;;18.65;43.98;99325.25;5011076;28;20713;-75
2022/11/28 08:36:18;;;;;;;12.60;7.15;;;18.10;78.70;;;18.64;43.92;99329.91;5027219;28;20064;-75
2022/11/28 08:38:45;;;;;;;9.50;6.75;;;18.10;78.20;;;18.61;43.79;99324.22;5027228;28;20038;-75
2022/11/28 08:41:13;;;;;;;10.13;7.03;;;18.00;78.10;;;18.58;43.90;99320.16;5014091;28;20050;-75
2022/11/28 08:43:39;;;;;;;10.77;6.93;;;18.00;78.20;;;18.59;43.67;99316.28;5024107;28;20116;-76
2022/11/28 08:46:14;;;;;;;10.48;6.60;;;18.00;78.10;;;18.60;44.05;99315.19;5008490;28;20045;-75
2022/11/28 08:48:40;;;;;;;11.18;6.85;;;18.00;78.60;;;18.60;44.17;99312.44;4995992;28;20046;-75
2022/11/28 08:51:06;;;;;;;9.70;7.15;;;18.00;78.70;;;18.62;44.07;99310.19;5008202;28;20037;-75
2022/11/28 08:53:33;;;;;;;14.80;6.63;;;18.00;78.50;;;18.61;44.01;99322.28;5007790;28;20045;-75
2022/11/28 08:55:59;;;;;;;9.02;6.35;;;18.00;78.40;;;18.64;43.54;99316.16;5024142;28;20501;-75
2022/11/28 08:58:25;;;;;;;12.02;7.95;;;18.00;78.20;;;18.62;43.73;99314.84;5008854;28;20079;-76
2022/11/28 09:00:51;;;;;;;9.43;6.88;;;18.00;78.10;;;18.62;43.80;99309.34;5025138;28;20493;-75
2022/11/28 09:03:18;;;;;;;10.07;6.25;;;18.00;79.10;;;18.67;43.96;99306.47;5022347;28;20500;-76
2022/11/28 09:05:45;;;;;;;10.57;6.30;;;18.10;78.60;;;18.68;43.78;99308.13;5022581;28;20098;-76
2022/11/28 09:08:18;;;;;;;8.05;6.18;;;18.10;78.40;;;18.67;43.78;99295.47;5025891;28;20045;-75
2022/11/28 09:10:44;;;;;;;9.82;7.07;;;18.10;78.10;;;18.67;43.80;99303.72;5023214;28;20402;-75
2022/11/28 09:13:14;;;;;;;6.90;5.95;;;18.10;78.20;;;18.66;43.66;99291.13;5022014;28;20489;-75
2022/11/28 09:15:41;;;;;;;8.20;5.85;;;18.10;78.00;;;18.68;43.69;99288.88;5023922;28;20045;-75
2022/11/28 09:18:07;;;;;;;9.45;7.00;;;18.10;77.90;;;18.69;43.70;99279.50;4996814;28;20473;-75
2022/11/28 09:20:34;;;;;;;9.27;6.32;;;18.10;78.10;;;18.71;43.82;99285.50;5022385;28;20576;-75
2022/11/28 09:23:00;;;;;;;9.57;6.13;;;18.10;78.20;;;18.71;43.69;99284.69;5023828;28;20501;-75
2022/11/28 09:25:26;;;;;;;9.55;6.18;;;18.10;78.00;;;18.71;43.67;99274.50;5025941;28;20045;-75
2022/11/28 09:27:52;;;;;;;9.60;6.78;;;18.10;77.80;;;18.71;43.55;99276.44;5003572;28;20042;-75
2022/11/28 09:30:21;;;;;;;8.65;6.65;;;18.10;77.80;;;18.73;43.42;99276.94;5023196;28;20103;-75
2022/11/28 09:32:51;;;;;;;7.43;6.28;;;18.20;77.70;;;18.70;43.64;99272.06;5007916;28;20050;-76
2022/11/28 09:35:17;;;;;;;8.30;6.15;;;18.20;77.90;;;18.75;43.39;99271.91;5024675;28;20060;-75
2022/11/28 09:37:43;;;;;;;13.13;6.85;;;18.20;77.90;;;18.76;43.77;99255.16;5007759;28;20515;-75
2022/11/28 09:40:39;;;;;;;8.95;6.28;;;18.20;78.00;;;18.77;43.44;99256.78;5023853;28;20374;-75
2022/11/28 09:43:33;;;;;;;8.55;5.72;;;18.20;77.60;;;18.76;43.33;99260.66;5009520;28;20048;-75
2022/11/28 09:46:00;;;;;;;8.07;6.38;;;18.20;77.50;;;18.79;43.35;99262.75;5024311;28;20053;-75
2022/11/28 09:48:37;;;;;;;10.15;7.32;;;18.20;77.50;;;18.78;43.15;99250.16;5025271;28;20178;-76
2022/11/28 09:51:22;;;;;;;10.20;6.40;;;18.20;77.30;;;18.82;43.30;99247.56;5025674;28;20056;-75
2022/11/28 09:54:13;;;;;;;10.15;7.03;;;18.20;77.50;;;18.80;43.51;99256.16;5026282;28;20045;-75
2022/11/28 09:56:39;;;;;;;13.23;6.85;;;18.20;77.60;;;18.83;43.33;99252.78;5020532;28;20050;-75
2022/11/28 09:59:32;;;;;;;8.30;5.78;;;18.20;77.30;;;18.81;43.20;99249.53;5024992;28;20054;-75
2022/11/28 10:02:28;;;;;;;9.48;6.03;;;18.20;77.20;;;18.81;42.95;99241.28;5010880;28;20042;-75
2022/11/28 10:05:18;;;;;;;8.10;6.25;;;18.20;76.80;;;18.83;43.23;99239.03;5040093;28;20034;-75
2022/11/28 10:08:02;;;;;;;7.63;5.60;;;18.30;76.80;;;18.81;43.34;99237.72;5023280;28;20048;-76
2022/11/28 10:11:00;;;;;;;8.82;6.55;;;18.30;77.00;;;18.80;43.32;99228.69;5025804;28;20048;-75
2022/11/28 10:13:59;;;;;;;7.88;6.20;;;18.30;78.30;;;18.84;42.81;99226.91;5024210;28;20420;-75
2022/11/28 10:17:14;;;;;;;7.50;5.53;;;18.40;76.90;;;18.86;42.98;99229.34;5025783;28;20055;-75
2022/11/28 10:19:48;;;;;;;9.13;6.90;;;18.30;76.80;;;18.86;42.77;99221.91;5020556;28;20061;-76
2022/11/28 10:22:18;;;;;;;7.38;5.57;;;18.30;76.80;;;18.90;43.06;99221.25;5010586;28;20064;-76
2022/11/28 10:24:55;;;;;;;10.25;7.18;;;18.40;76.90;;;18.88;42.98;99221.59;4992832;28;20676;-76
2022/11/28 10:27:24;;;;;;;9.13;6.13;;;18.30;77.00;;;18.89;43.19;99217.69;5022516;28;20601;-75
2022/11/28 10:30:07;;;;;;;9.75;6.13;;;18.30;77.10;;;18.89;43.14;99214.16;4992345;28;20111;-75
2022/11/28 10:32:41;;;;;;;8.43;5.80;;;18.40;76.90;;;18.90;42.96;99210.25;5025146;28;20045;-75
2022/11/28 10:35:35;;;;;;;7.57;6.00;;;18.40;76.90;;;18.89;42.84;99203.16;5011068;28;20049;-75
2022/11/28 10:38:01;;;;;;;8.38;6.28;;;18.40;76.90;;;18.89;43.11;99209.44;5040057;28;20410;-75